Time;durP1;ratioP1;P1;durP2;ratioP2;P2;SDS_P1;SDS_P2;PMS_P1;PMS_P2;Temp;Humidity;BMP_temperature;BMP_pressure;BME280_temperature;BME280_humidity;BME280_pressure;Samples;Min_cycle;Max_cycle;Signal;HPM_P1;HPM_P2
2022/09/07 00:00:42;;;;;;;5.63;1.55;;;14.60;99.90;;;;;;4977417;28;20030;-69
2022/09/07 00:03:08;;;;;;;3.83;1.38;;;14.60;99.90;;;;;;4977419;28;20415;-70
2022/09/07 00:05:39;;;;;;;9.02;1.85;;;14.60;99.90;;;;;;4976771;28;20034;-70
2022/09/07 00:08:05;;;;;;;6.45;1.48;;;14.60;99.90;;;;;;4977737;28;20023;-70
2022/09/07 00:10:30;;;;;;;4.53;2.00;;;14.60;99.90;;;;;;4977013;28;20039;-70
2022/09/07 00:12:56;;;;;;;3.17;2.03;;;14.60;99.90;;;;;;4977192;28;20026;-70
2022/09/07 00:15:21;;;;;;;8.48;1.70;;;14.60;99.90;;;;;;4976752;28;20370;-70
2022/09/07 00:17:47;;;;;;;5.05;1.40;;;14.50;99.90;;;;;;4977179;28;20031;-70
2022/09/07 00:20:13;;;;;;;4.78;1.75;;;14.60;99.90;;;;;;4976986;28;20061;-69
2022/09/07 00:22:39;;;;;;;7.40;1.30;;;14.50;99.90;;;;;;4977357;28;20034;-70
2022/09/07 00:29:01;;;;;;;4.15;1.50;;;14.60;99.90;;;;;;4976849;28;20574;-70
2022/09/07 00:31:29;;;;;;;6.68;1.45;;;14.60;99.90;;;;;;4976869;28;20023;-69
2022/09/07 00:33:57;;;;;;;11.65;1.45;;;14.60;99.90;;;;;;4976668;28;20034;-69
2022/09/07 00:36:23;;;;;;;3.45;1.73;;;14.60;99.90;;;;;;4976977;28;20026;-70
2022/09/07 00:38:49;;;;;;;4.57;1.63;;;14.60;99.90;;;;;;4977123;28;20031;-70
2022/09/07 00:41:15;;;;;;;7.95;2.08;;;14.60;99.90;;;;;;4976804;28;20364;-69
2022/09/07 00:43:42;;;;;;;6.53;1.35;;;14.60;99.90;;;;;;4976898;28;20026;-70
2022/09/07 00:46:19;;;;;;;19.98;2.47;;;14.60;99.90;;;;;;4975989;28;20035;-70
2022/09/07 00:48:57;;;;;;;6.00;1.95;;;14.60;99.90;;;;;;4976386;28;20034;-70
2022/09/07 00:51:54;;;;;;;7.03;2.30;;;14.60;99.90;;;;;;4976526;28;20027;-70
2022/09/07 00:54:25;;;;;;;6.45;1.60;;;14.60;99.90;;;;;;4961666;28;20035;-70
2022/09/07 00:56:52;;;;;;;3.67;1.95;;;14.60;99.90;;;;;;4975862;28;20030;-70
2022/09/07 00:59:23;;;;;;;10.25;1.55;;;14.60;99.90;;;;;;4976256;28;20023;-70
2022/09/07 01:01:49;;;;;;;6.53;1.63;;;14.60;99.90;;;;;;4976447;28;20054;-70
2022/09/07 01:04:15;;;;;;;15.40;2.72;;;14.60;99.90;;;;;;4975734;28;20097;-70
2022/09/07 01:06:42;;;;;;;9.13;1.83;;;14.60;99.90;;;;;;4976374;28;20019;-70
2022/09/07 01:09:15;;;;;;;8.18;2.33;;;14.60;99.90;;;;;;4975938;28;20035;-69
2022/09/07 01:11:44;;;;;;;7.00;2.08;;;14.60;99.90;;;;;;4976154;28;20030;-70
2022/09/07 01:14:14;;;;;;;7.47;1.80;;;14.60;99.90;;;;;;4976204;28;20023;-70
2022/09/07 01:16:57;;;;;;;12.65;1.48;;;14.60;99.90;;;;;;4975762;28;20479;-69
2022/09/07 01:19:25;;;;;;;7.22;2.25;;;14.60;99.90;;;;;;4976136;28;20483;-70
2022/09/07 01:22:00;;;;;;;3.65;1.73;;;14.60;99.90;;;;;;4975985;28;20431;-70
2022/09/07 01:24:31;;;;;;;7.25;1.60;;;14.60;99.90;;;;;;4975907;28;20030;-70
2022/09/07 01:27:27;;;;;;;4.18;1.55;;;14.60;99.90;;;;;;4962448;28;20050;-69
2022/09/07 01:30:19;;;;;;;5.50;1.55;;;14.50;99.90;;;;;;4975011;28;20026;-70
2022/09/07 01:33:35;;;;;;;2.97;1.40;;;14.50;99.90;;;;;;4975930;28;20027;-70
2022/09/07 01:36:01;;;;;;;5.72;1.73;;;14.50;99.90;;;;;;4897829;29;20092;-70
2022/09/07 01:38:39;;;;;;;6.55;1.77;;;14.40;99.90;;;;;;4897179;29;20028;-70
2022/09/07 01:41:11;;;;;;;11.27;1.60;;;14.50;99.90;;;;;;4946457;28;20054;-70
2022/09/07 01:43:56;;;;;;;7.88;1.83;;;14.40;99.90;;;;;;4975540;28;20543;-70
2022/09/07 01:46:46;;;;;;;5.43;1.60;;;14.40;99.90;;;;;;4975703;28;20102;-70
2022/09/07 01:49:25;;;;;;;5.05;1.48;;;14.40;99.90;;;;;;4974502;28;20066;-70
2022/09/07 01:51:56;;;;;;;9.02;2.17;;;14.50;99.90;;;;;;4975708;28;20030;-70
2022/09/07 01:54:33;;;;;;;7.43;1.70;;;14.40;99.90;;;;;;4974978;28;20029;-70
2022/09/07 01:57:08;;;;;;;2.95;1.50;;;14.50;99.90;;;;;;4975444;28;20105;-70
2022/09/07 01:59:49;;;;;;;7.78;2.17;;;14.40;99.90;;;;;;4975460;28;20107;-70
2022/09/07 02:02:19;;;;;;;6.35;2.03;;;14.40;99.90;;;;;;4975487;28;20105;-69
2022/09/07 02:05:02;;;;;;;4.15;1.98;;;14.50;99.90;;;;;;4974874;28;20046;-70
2022/09/07 02:07:35;;;;;;;4.35;1.83;;;14.40;99.90;;;;;;4975137;28;20027;-70
2022/09/07 02:10:14;;;;;;;8.85;2.47;;;14.40;99.90;;;;;;4975727;28;20502;-70
2022/09/07 02:12:43;;;;;;;6.22;1.83;;;14.40;99.90;;;;;;4975068;28;20110;-70
2022/09/07 02:15:42;;;;;;;8.88;2.58;;;14.40;99.90;;;;;;4970488;28;20085;-70
2022/09/07 02:18:12;;;;;;;14.57;2.55;;;14.40;99.90;;;;;;4953327;29;20094;-71
2022/09/07 02:20:40;;;;;;;5.65;1.90;;;14.30;99.90;;;;;;4958178;28;20480;-70
2022/09/07 02:23:12;;;;;;;10.88;2.25;;;14.30;99.90;;;;;;4974852;28;20539;-71
2022/09/07 02:25:44;;;;;;;8.43;2.20;;;14.30;99.90;;;;;;4974789;28;20475;-70
2022/09/07 02:28:17;;;;;;;12.93;2.35;;;14.30;99.90;;;;;;4975053;28;20035;-71
2022/09/07 02:30:42;;;;;;;10.88;2.20;;;14.30;99.90;;;;;;4974430;28;20487;-70
2022/09/07 02:33:08;;;;;;;11.65;2.17;;;14.30;99.90;;;;;;4974931;28;20069;-71
2022/09/07 02:35:35;;;;;;;11.32;2.03;;;14.30;99.90;;;;;;4974957;28;20387;-70
2022/09/07 02:38:04;;;;;;;6.57;2.58;;;14.20;99.90;;;;;;4974825;28;20026;-71
2022/09/07 02:40:30;;;;;;;4.30;1.73;;;14.20;99.90;;;;;;4974690;28;20030;-70
2022/09/07 02:42:59;;;;;;;3.10;1.60;;;14.20;99.90;;;;;;4974408;28;20076;-70
2022/09/07 02:45:32;;;;;;;10.18;2.33;;;14.10;99.90;;;;;;4974973;28;20030;-70
2022/09/07 02:48:20;;;;;;;7.72;1.98;;;14.10;99.90;;;;;;4974605;28;20030;-71
2022/09/07 02:51:13;;;;;;;10.68;2.15;;;14.00;99.90;;;;;;4974541;28;20029;-71
2022/09/07 02:54:10;;;;;;;10.07;3.03;;;14.10;99.90;;;;;;4974759;28;20101;-71
2022/09/07 02:56:55;;;;;;;11.23;1.95;;;14.10;99.90;;;;;;4974087;28;20026;-70
2022/09/07 02:59:39;;;;;;;9.48;2.03;;;14.10;99.90;;;;;;4974504;28;20117;-71
2022/09/07 03:02:38;;;;;;;5.53;2.03;;;14.10;99.90;;;;;;4974796;28;20498;-68
2022/09/07 03:05:36;;;;;;;5.78;1.90;;;14.10;99.90;;;;;;4974532;28;20460;-68
2022/09/07 03:08:08;;;;;;;6.32;2.25;;;14.10;99.90;;;;;;4957366;28;20046;-67
2022/09/07 03:10:37;;;;;;;8.63;2.20;;;14.10;99.90;;;;;;4973001;28;20030;-67
2022/09/07 03:13:03;;;;;;;8.65;2.65;;;14.10;99.90;;;;;;4958546;28;20032;-68
2022/09/07 03:15:28;;;;;;;8.85;2.10;;;14.10;99.90;;;;;;4954486;28;20030;-68
2022/09/07 03:17:54;;;;;;;8.27;2.17;;;14.10;99.90;;;;;;4968109;28;20046;-68
2022/09/07 03:20:20;;;;;;;9.95;2.30;;;14.00;99.90;;;;;;4974152;28;20023;-68
2022/09/07 03:22:48;;;;;;;3.83;1.60;;;14.00;99.90;;;;;;4967652;28;20059;-68
2022/09/07 03:25:14;;;;;;;17.60;3.05;;;14.00;99.90;;;;;;4954393;28;20058;-68
2022/09/07 03:27:40;;;;;;;8.23;2.10;;;14.00;99.90;;;;;;4958638;28;20480;-68
2022/09/07 03:30:08;;;;;;;5.40;1.98;;;13.90;99.90;;;;;;4976652;28;20033;-68
2022/09/07 03:32:36;;;;;;;9.50;2.33;;;14.00;99.90;;;;;;4977825;28;20030;-68
2022/09/07 03:35:03;;;;;;;5.03;1.75;;;13.90;99.90;;;;;;4977860;28;20037;-68
2022/09/07 03:37:29;;;;;;;8.15;2.08;;;13.90;99.90;;;;;;4977306;28;20082;-68
2022/09/07 03:39:54;;;;;;;3.50;1.55;;;13.90;99.90;;;;;;4977980;28;20027;-68
2022/09/07 03:42:20;;;;;;;4.30;1.73;;;13.90;99.90;;;;;;4978229;28;20093;-68
2022/09/07 03:44:48;;;;;;;5.95;2.30;;;13.90;99.90;;;;;;4977709;28;20066;-68
2022/09/07 03:47:14;;;;;;;6.45;2.17;;;13.90;99.90;;;;;;4977916;28;20531;-68
2022/09/07 03:49:40;;;;;;;7.20;2.63;;;13.90;99.90;;;;;;4976863;28;20035;-68
2022/09/07 03:52:05;;;;;;;6.53;2.35;;;13.90;99.90;;;;;;4977720;28;20029;-68
2022/09/07 03:54:31;;;;;;;7.53;2.45;;;13.80;99.90;;;;;;4977740;28;20023;-68
2022/09/07 03:56:56;;;;;;;8.68;2.40;;;13.80;99.90;;;;;;4977596;28;20027;-68
2022/09/07 03:59:22;;;;;;;8.25;2.63;;;13.80;99.90;;;;;;4977348;28;20053;-68
2022/09/07 04:01:48;;;;;;;12.77;2.55;;;13.80;99.90;;;;;;4976886;28;20391;-68
2022/09/07 04:04:13;;;;;;;7.65;2.58;;;13.70;99.90;;;;;;4977334;28;20098;-68
2022/09/07 04:06:39;;;;;;;5.03;2.58;;;13.80;99.90;;;;;;4975888;28;20483;-68
2022/09/07 04:09:06;;;;;;;10.07;2.75;;;13.80;99.90;;;;;;4977221;28;20097;-68
2022/09/07 04:11:32;;;;;;;10.80;2.90;;;13.90;99.90;;;;;;4976854;28;20066;-68
2022/09/07 04:13:58;;;;;;;12.45;3.10;;;13.80;99.90;;;;;;4977384;28;20114;-68
2022/09/07 04:16:25;;;;;;;12.50;2.75;;;13.80;99.90;;;;;;4976059;28;20031;-68
2022/09/07 04:18:55;;;;;;;7.07;2.58;;;13.80;99.90;;;;;;4976971;28;20391;-68
2022/09/07 04:21:26;;;;;;;9.82;3.28;;;13.90;99.90;;;;;;4977126;28;20089;-71
2022/09/07 04:23:52;;;;;;;11.32;3.35;;;13.90;99.90;;;;;;4976704;28;20031;-70
2022/09/07 04:26:25;;;;;;;6.13;2.78;;;13.90;99.90;;;;;;4977077;28;20031;-70
2022/09/07 04:28:51;;;;;;;7.70;2.97;;;13.90;99.90;;;;;;4977070;28;20082;-71
2022/09/07 04:31:17;;;;;;;9.25;3.00;;;13.90;99.90;;;;;;4977437;28;20042;-68
2022/09/07 04:33:45;;;;;;;5.32;2.60;;;13.90;99.90;;;;;;4976934;28;20022;-68
2022/09/07 04:36:11;;;;;;;10.07;2.80;;;14.00;99.90;;;;;;4976399;28;20023;-68
2022/09/07 04:38:38;;;;;;;19.45;3.67;;;14.00;99.90;;;;;;4975837;28;20058;-68
2022/09/07 04:41:10;;;;;;;9.57;4.25;;;14.00;99.90;;;;;;4976659;28;20027;-68
2022/09/07 04:43:37;;;;;;;10.20;3.22;;;14.00;99.90;;;;;;4975329;28;20031;-68
2022/09/07 04:46:05;;;;;;;5.28;2.58;;;14.10;99.90;;;;;;4976919;28;20026;-68
2022/09/07 04:48:31;;;;;;;6.40;2.75;;;14.10;99.90;;;;;;4975858;28;20026;-68
2022/09/07 04:51:04;;;;;;;8.82;3.03;;;14.10;99.90;;;;;;4976723;28;20069;-68
2022/09/07 04:53:30;;;;;;;6.63;3.17;;;14.10;99.90;;;;;;4976771;28;20065;-68
2022/09/07 04:55:57;;;;;;;10.98;3.15;;;14.10;99.90;;;;;;4976084;28;20047;-68
2022/09/07 04:58:23;;;;;;;6.13;2.88;;;14.10;99.90;;;;;;4976411;28;20034;-68
2022/09/07 05:00:48;;;;;;;10.48;2.92;;;14.10;99.90;;;;;;4976615;28;20034;-68
2022/09/07 05:03:14;;;;;;;12.48;4.00;;;14.10;99.90;;;;;;4976274;28;20030;-68
2022/09/07 05:05:39;;;;;;;10.23;2.90;;;14.20;99.90;;;;;;4976564;28;20019;-68
2022/09/07 05:08:05;;;;;;;8.68;3.30;;;14.20;99.90;;;;;;4975973;28;20031;-69
2022/09/07 05:10:31;;;;;;;6.80;2.92;;;14.20;99.90;;;;;;4976173;28;20377;-69
2022/09/07 05:12:57;;;;;;;8.30;3.72;;;14.30;99.90;;;;;;4976047;28;20035;-68
2022/09/07 05:15:22;;;;;;;10.85;2.83;;;14.30;99.90;;;;;;4976077;28;20090;-68
2022/09/07 05:17:49;;;;;;;12.98;2.67;;;14.30;99.90;;;;;;4976229;28;20126;-68
2022/09/07 05:20:15;;;;;;;8.93;2.95;;;14.30;99.90;;;;;;4975875;28;20379;-69
2022/09/07 05:22:41;;;;;;;12.30;3.25;;;14.30;99.90;;;;;;4975381;28;20030;-69
2022/09/07 05:25:07;;;;;;;13.07;3.72;;;14.40;99.90;;;;;;4975873;28;20479;-69
2022/09/07 05:27:33;;;;;;;8.63;3.10;;;14.40;99.90;;;;;;4975745;28;20035;-69
2022/09/07 05:29:59;;;;;;;8.98;3.88;;;14.50;99.90;;;;;;4975718;28;20486;-69
2022/09/07 05:32:24;;;;;;;9.07;2.80;;;14.50;99.90;;;;;;4975291;28;20027;-68
2022/09/07 05:34:50;;;;;;;6.88;3.00;;;14.60;99.90;;;;;;4976171;28;20027;-68
2022/09/07 05:37:15;;;;;;;6.15;2.78;;;14.60;99.90;;;;;;4975651;28;20478;-68
2022/09/07 05:39:41;;;;;;;6.60;2.47;;;14.70;99.90;;;;;;4975585;28;20479;-69
2022/09/07 05:42:06;;;;;;;6.18;3.15;;;14.70;99.90;;;;;;4975796;28;20026;-68
2022/09/07 05:44:32;;;;;;;10.43;3.10;;;14.70;99.90;;;;;;4974982;28;20031;-69
2022/09/07 05:46:58;;;;;;;8.57;3.25;;;14.80;99.90;;;;;;4975638;28;20053;-69
2022/09/07 05:49:23;;;;;;;6.72;3.20;;;14.90;99.90;;;;;;4975596;28;20390;-68
2022/09/07 05:51:49;;;;;;;9.32;2.75;;;14.90;99.90;;;;;;4975637;28;20082;-68
2022/09/07 05:54:14;;;;;;;14.23;3.55;;;14.90;99.90;;;;;;4974771;28;20026;-69
2022/09/07 05:56:40;;;;;;;4.45;2.80;;;15.00;99.90;;;;;;4975343;28;20015;-69
2022/09/07 05:59:05;;;;;;;6.85;2.72;;;15.00;99.90;;;;;;4973899;28;20035;-69
2022/09/07 06:01:31;;;;;;;11.32;2.83;;;15.00;99.90;;;;;;4975222;28;20031;-69
2022/09/07 06:03:57;;;;;;;3.80;2.47;;;15.10;99.90;;;;;;4975691;28;20023;-69
2022/09/07 06:06:23;;;;;;;6.68;2.42;;;15.10;99.90;;;;;;4974560;28;20509;-68
2022/09/07 06:08:51;;;;;;;13.35;3.22;;;15.20;99.90;;;;;;4974768;28;20062;-69
2022/09/07 06:11:19;;;;;;;15.88;2.80;;;15.20;99.90;;;;;;4975372;28;20078;-69
2022/09/07 06:13:44;;;;;;;11.55;3.05;;;15.30;99.90;;;;;;4974497;28;20029;-69
2022/09/07 06:16:12;;;;;;;7.90;2.75;;;15.40;99.90;;;;;;4975036;28;20023;-68
2022/09/07 06:18:41;;;;;;;7.18;3.00;;;15.40;99.90;;;;;;4975115;28;20105;-69
2022/09/07 06:21:09;;;;;;;12.65;2.40;;;15.40;99.90;;;;;;4974744;28;20037;-69
2022/09/07 06:23:36;;;;;;;4.40;2.70;;;15.50;99.90;;;;;;4975001;28;20498;-68
2022/09/07 06:26:03;;;;;;;13.00;2.50;;;15.60;99.90;;;;;;4974873;28;20031;-69
2022/09/07 06:28:33;;;;;;;11.98;3.38;;;15.50;99.90;;;;;;4974798;28;20054;-69
2022/09/07 06:31:07;;;;;;;8.55;3.15;;;15.60;99.90;;;;;;4973452;28;20019;-69
2022/09/07 06:33:34;;;;;;;13.27;3.17;;;15.70;99.90;;;;;;4975104;28;20051;-69
2022/09/07 06:36:02;;;;;;;6.78;2.47;;;15.60;99.90;;;;;;4971861;28;20030;-69
2022/09/07 06:38:30;;;;;;;4.75;2.20;;;15.70;99.90;;;;;;4974651;28;20037;-69
2022/09/07 06:41:03;;;;;;;14.70;2.88;;;15.70;99.90;;;;;;4974762;28;20034;-69
2022/09/07 06:43:29;;;;;;;7.03;3.33;;;15.80;99.90;;;;;;4974726;28;20499;-69
2022/09/07 06:45:55;;;;;;;9.35;3.15;;;15.80;99.90;;;;;;4974873;28;20118;-69
2022/09/07 06:48:21;;;;;;;8.75;2.70;;;15.90;99.90;;;;;;4974122;28;20023;-68
2022/09/07 06:51:19;;;;;;;6.55;2.75;;;16.00;99.90;;;;;;4974456;28;20042;-69
2022/09/07 06:53:48;;;;;;;10.25;2.97;;;16.10;99.90;;;;;;4974556;28;20483;-69
2022/09/07 06:56:15;;;;;;;8.00;2.30;;;16.10;99.90;;;;;;4972880;28;20027;-69
2022/09/07 06:58:42;;;;;;;9.00;2.83;;;16.20;99.90;;;;;;4974498;28;20026;-69
2022/09/07 07:01:13;;;;;;;8.15;3.42;;;16.20;99.90;;;;;;4973986;28;20157;-69
2022/09/07 07:03:40;;;;;;;7.38;2.65;;;16.30;99.90;;;;;;4978246;28;20031;-69
2022/09/07 07:06:06;;;;;;;5.47;2.45;;;16.30;99.90;;;;;;4978644;28;20097;-69
2022/09/07 07:08:31;;;;;;;5.07;2.58;;;16.40;99.90;;;;;;4978584;28;20079;-69
2022/09/07 07:11:01;;;;;;;7.97;2.58;;;16.40;99.90;;;;;;4977654;28;20027;-69
2022/09/07 07:13:27;;;;;;;13.15;2.72;;;16.40;99.90;;;;;;4978630;28;20360;-67
2022/09/07 07:16:04;;;;;;;6.68;2.47;;;16.50;99.90;;;;;;4978294;28;20015;-69
2022/09/07 07:18:31;;;;;;;9.00;3.00;;;16.50;99.90;;;;;;4978529;28;20034;-69
2022/09/07 07:20:57;;;;;;;9.07;3.03;;;16.50;99.90;;;;;;4978260;28;20474;-69
2022/09/07 07:23:23;;;;;;;7.85;2.65;;;16.60;99.90;;;;;;4977764;28;20042;-69
2022/09/07 07:25:48;;;;;;;7.00;2.83;;;16.60;99.90;;;;;;4978191;28;20027;-68
2022/09/07 07:28:14;;;;;;;7.13;3.08;;;16.60;99.90;;;;;;4978428;28;20356;-69
2022/09/07 07:30:40;;;;;;;11.60;3.00;;;16.70;99.90;;;;;;4978610;28;20058;-70
2022/09/07 07:33:06;;;;;;;11.38;3.13;;;16.70;99.90;;;;;;4977866;28;20030;-70
2022/09/07 07:35:33;;;;;;;5.20;2.90;;;16.80;99.90;;;;;;4978234;28;20025;-71
2022/09/07 07:37:58;;;;;;;10.13;3.30;;;16.80;99.90;;;;;;4978314;28;20069;-71
2022/09/07 07:40:25;;;;;;;14.77;2.55;;;16.80;99.90;;;;;;4977323;28;20030;-71
2022/09/07 07:42:50;;;;;;;8.20;2.55;;;16.80;99.90;;;;;;4977838;28;20109;-71
2022/09/07 07:45:16;;;;;;;10.75;3.10;;;16.90;99.90;;;;;;4977701;28;20106;-70
2022/09/07 07:47:42;;;;;;;7.03;2.75;;;16.90;99.90;;;;;;4977623;28;20050;-70
2022/09/07 07:50:08;;;;;;;5.70;2.58;;;17.00;99.90;;;;;;4977788;28;20034;-71
2022/09/07 07:52:38;;;;;;;8.30;2.60;;;17.10;99.90;;;;;;4977405;28;20534;-70
2022/09/07 07:55:05;;;;;;;10.35;2.42;;;17.20;99.90;;;;;;4977709;28;20053;-71
2022/09/07 07:57:31;;;;;;;6.50;2.85;;;17.30;99.90;;;;;;4977891;28;20400;-71
2022/09/07 07:59:57;;;;;;;8.27;2.95;;;17.40;99.90;;;;;;4977513;28;20038;-71
2022/09/07 08:02:22;;;;;;;10.20;2.85;;;17.50;99.90;;;;;;4977031;28;20030;-71
2022/09/07 08:04:48;;;;;;;4.47;2.67;;;17.60;99.90;;;;;;4978303;28;20027;-71
2022/09/07 08:07:14;;;;;;;7.82;2.50;;;17.50;99.90;;;;;;4977354;28;20026;-68
2022/09/07 08:09:42;;;;;;;11.38;2.42;;;17.60;99.90;;;;;;4977425;28;20030;-71
2022/09/07 08:12:10;;;;;;;8.93;2.70;;;17.70;99.90;;;;;;4977399;28;20039;-71
2022/09/07 08:14:39;;;;;;;7.93;2.42;;;17.60;99.90;;;;;;4976290;28;20023;-71
2022/09/07 08:17:05;;;;;;;6.95;2.65;;;17.60;99.90;;;;;;4977422;28;20472;-70
2022/09/07 08:19:31;;;;;;;5.93;2.70;;;17.50;99.90;;;;;;4977172;28;20471;-70
2022/09/07 08:21:56;;;;;;;7.45;3.58;;;17.60;99.90;;;;;;4976915;28;20038;-70
2022/09/07 08:24:22;;;;;;;4.30;2.42;;;17.50;99.90;;;;;;4976112;28;20533;-71
2022/09/07 08:26:47;;;;;;;10.30;3.05;;;17.50;99.90;;;;;;4977710;28;20106;-69
2022/09/07 08:29:13;;;;;;;10.70;2.95;;;17.40;99.90;;;;;;4977481;28;20369;-71
2022/09/07 08:31:39;;;;;;;10.05;2.90;;;17.20;99.90;;;;;;4977718;28;20114;-71
2022/09/07 08:34:06;;;;;;;5.30;3.13;;;17.10;99.90;;;;;;4977363;28;20042;-71
2022/09/07 08:36:32;;;;;;;8.02;3.35;;;17.00;99.90;;;;;;4977259;28;20455;-70
2022/09/07 08:38:58;;;;;;;6.88;2.50;;;16.90;99.90;;;;;;4975483;28;20034;-71
2022/09/07 08:42:03;;;;;;;14.90;3.80;;;16.80;99.90;;;;;;4976978;28;20022;-71
2022/09/07 08:44:50;;;;;;;7.38;3.35;;;16.90;99.90;;;;;;4976544;28;20050;-72
2022/09/07 08:47:36;;;;;;;10.13;3.75;;;16.80;99.90;;;;;;4977276;28;20022;-70
2022/09/07 08:50:11;;;;;;;7.53;3.00;;;16.70;99.90;;;;;;4975769;28;20102;-72
2022/09/07 08:52:50;;;;;;;5.70;3.10;;;16.60;99.90;;;;;;4977033;28;20014;-71
2022/09/07 08:55:20;;;;;;;6.93;3.55;;;16.40;99.90;;;;;;4977259;28;20047;-72
2022/09/07 08:58:11;;;;;;;4.78;3.38;;;16.30;99.90;;;;;;4976251;28;20031;-71
2022/09/07 09:00:38;;;;;;;8.45;3.70;;;16.20;99.90;;;;;;4977002;28;20085;-71
2022/09/07 09:03:07;;;;;;;8.27;4.07;;;16.10;99.90;;;;;;4977139;28;20085;-71
2022/09/07 09:05:53;;;;;;;4.65;3.15;;;16.10;99.90;;;;;;4977245;28;20015;-71
2022/09/07 09:08:27;;;;;;;8.75;4.22;;;16.00;99.90;;;;;;4977317;28;20175;-71
2022/09/07 09:11:35;;;;;;;4.93;3.75;;;16.00;99.90;;;;;;4976371;28;20480;-71
2022/09/07 09:14:16;;;;;;;4.60;3.03;;;15.90;99.90;;;;;;4976055;28;20094;-71
2022/09/07 09:17:02;;;;;;;5.43;3.72;;;15.90;99.90;;;;;;4976328;28;20105;-71
2022/09/07 09:19:59;;;;;;;5.18;3.45;;;15.90;99.90;;;;;;4976196;28;20027;-71
2022/09/07 09:22:27;;;;;;;8.18;3.85;;;15.90;99.90;;;;;;4976098;28;20027;-71
2022/09/07 09:25:01;;;;;;;14.88;4.10;;;15.90;99.90;;;;;;4975023;28;20023;-71
2022/09/07 09:27:26;;;;;;;13.90;5.28;;;16.00;99.90;;;;;;4976043;28;20383;-72
2022/09/07 09:29:52;;;;;;;11.63;4.57;;;16.10;99.90;;;;;;4975687;28;20034;-72
2022/09/07 09:32:33;;;;;;;8.55;4.20;;;16.10;99.90;;;;;;4976059;28;20019;-71
2022/09/07 09:35:22;;;;;;;11.73;5.07;;;16.10;99.90;;;;;;4976215;28;20022;-72
2022/09/07 09:37:47;;;;;;;9.40;4.18;;;16.10;99.90;;;;;;4975439;28;20034;-71
2022/09/07 09:40:20;;;;;;;9.48;4.60;;;16.20;99.90;;;;;;4975739;28;20407;-71
2022/09/07 09:42:47;;;;;;;11.88;5.10;;;16.20;99.90;;;;;;4975619;28;20032;-71
2022/09/07 09:45:20;;;;;;;10.80;5.47;;;16.20;99.90;;;;;;4973866;28;20031;-71
2022/09/07 09:47:49;;;;;;;7.30;4.63;;;16.30;99.90;;;;;;4975855;28;20018;-72
2022/09/07 09:50:39;;;;;;;5.28;4.07;;;16.20;99.90;;;;;;4975917;28;20025;-71
2022/09/07 09:53:05;;;;;;;12.93;4.90;;;16.30;99.90;;;;;;4975304;28;20027;-71
2022/09/07 09:55:36;;;;;;;12.68;4.30;;;16.20;99.90;;;;;;4976732;28;20029;-72
2022/09/07 09:58:05;;;;;;;11.40;5.10;;;16.20;99.90;;;;;;4977065;28;20030;-72
2022/09/07 10:00:32;;;;;;;6.88;3.95;;;16.10;99.90;;;;;;4975560;28;20091;-71
2022/09/07 10:02:59;;;;;;;6.93;4.32;;;16.00;99.90;;;;;;4975816;28;20065;-71
2022/09/07 10:05:36;;;;;;;8.88;4.30;;;16.00;99.90;;;;;;4975358;28;20082;-71
2022/09/07 10:08:14;;;;;;;7.72;5.03;;;16.00;99.90;;;;;;4974458;28;20023;-71
2022/09/07 10:10:49;;;;;;;14.52;4.90;;;16.00;99.90;;;;;;4975037;28;20511;-71
2022/09/07 10:13:25;;;;;;;7.85;4.32;;;16.00;99.90;;;;;;4975789;28;20031;-72
2022/09/07 10:15:54;;;;;;;8.10;4.82;;;16.00;99.90;;;;;;4975370;28;20077;-71
2022/09/07 10:18:30;;;;;;;6.22;4.30;;;16.10;99.90;;;;;;4974393;28;20057;-72
2022/09/07 10:21:21;;;;;;;8.70;4.75;;;16.20;99.90;;;;;;4975489;28;20110;-72
2022/09/07 10:24:08;;;;;;;8.02;4.72;;;16.30;99.90;;;;;;4974550;28;20391;-72
2022/09/07 10:26:36;;;;;;;7.38;4.45;;;16.40;99.90;;;;;;4961149;28;20038;-72
2022/09/07 10:29:15;;;;;;;8.77;5.00;;;16.60;99.90;;;;;;4974883;28;20061;-72
2022/09/07 10:32:07;;;;;;;10.45;4.63;;;16.80;99.90;;;;;;4974360;28;20050;-74
2022/09/07 10:35:00;;;;;;;8.35;5.03;;;17.10;99.90;;;;;;4975207;28;20023;-72
2022/09/07 10:38:01;;;;;;;8.30;5.00;;;17.40;99.90;;;;;;4974577;28;20019;-72
2022/09/07 10:41:04;;;;;;;9.18;4.65;;;17.60;99.90;;;;;;4974987;28;20027;-71
2022/09/07 10:43:49;;;;;;;5.95;4.40;;;17.70;99.90;;;;;;4934752;28;20050;-72
2022/09/07 10:46:29;;;;;;;12.52;4.90;;;17.90;99.90;;;;;;4974987;28;20085;-71
2022/09/07 10:49:22;;;;;;;12.40;4.65;;;17.90;99.90;;;;;;4974877;28;20065;-71
2022/09/07 10:51:59;;;;;;;10.82;5.65;;;17.90;99.90;;;;;;4974692;28;20368;-71
2022/09/07 10:54:35;;;;;;;8.82;4.63;;;17.70;99.90;;;;;;4974436;28;20023;-71
2022/09/07 10:57:06;;;;;;;7.55;4.80;;;17.70;99.90;;;;;;4975159;28;20542;-71
2022/09/07 10:59:44;;;;;;;7.93;5.30;;;17.70;99.90;;;;;;4974541;28;20041;-71
2022/09/07 11:02:23;;;;;;;22.80;5.80;;;17.70;99.90;;;;;;4962477;28;20031;-71
2022/09/07 11:05:13;;;;;;;8.73;5.10;;;17.60;99.90;;;;;;4972743;28;20026;-71
2022/09/07 11:07:53;;;;;;;12.10;5.43;;;17.60;99.90;;;;;;4974471;28;20081;-71
2022/09/07 11:10:36;;;;;;;7.47;4.93;;;17.60;99.90;;;;;;4974323;28;20117;-72
2022/09/07 11:13:06;;;;;;;7.15;4.43;;;17.50;99.90;;;;;;4975210;28;20077;-71
2022/09/07 11:15:44;;;;;;;9.35;4.90;;;17.60;99.90;;;;;;4974874;28;20034;-72
2022/09/07 11:18:21;;;;;;;12.63;4.13;;;17.50;99.90;;;;;;4974320;28;20034;-71
2022/09/07 11:20:54;;;;;;;9.82;4.40;;;17.50;99.90;;;;;;4974564;28;20032;-71
2022/09/07 11:23:25;;;;;;;13.60;5.00;;;17.40;99.90;;;;;;4974684;28;20090;-71
2022/09/07 11:26:04;;;;;;;14.38;5.82;;;17.40;99.90;;;;;;4974376;28;20031;-71
2022/09/07 11:28:49;;;;;;;14.77;4.93;;;17.30;99.90;;;;;;4974864;28;20035;-72
2022/09/07 11:31:38;;;;;;;12.40;4.68;;;17.20;99.90;;;;;;4974481;28;20023;-72
2022/09/07 11:34:15;;;;;;;12.77;5.30;;;17.20;99.90;;;;;;4975036;28;20022;-72
2022/09/07 11:37:00;;;;;;;9.40;5.00;;;17.20;99.90;;;;;;4973896;28;20525;-72
2022/09/07 11:39:34;;;;;;;10.18;5.32;;;17.20;99.90;;;;;;4974341;28;20082;-71
2022/09/07 11:42:03;;;;;;;11.32;5.13;;;17.20;99.90;;;;;;4974401;28;20082;-71
2022/09/07 11:44:35;;;;;;;9.35;5.00;;;17.30;99.90;;;;;;4974335;28;20487;-71
2022/09/07 11:47:08;;;;;;;13.60;5.30;;;17.40;99.90;;;;;;4972982;28;20090;-72
2022/09/07 11:49:33;;;;;;;15.98;5.43;;;17.40;99.90;;;;;;4976536;28;20038;-71
2022/09/07 11:52:13;;;;;;;13.18;4.95;;;17.40;99.90;;;;;;4977955;28;20026;-72
2022/09/07 11:54:53;;;;;;;10.35;4.45;;;17.50;99.90;;;;;;4978184;28;20483;-71
2022/09/07 11:57:37;;;;;;;10.57;4.60;;;17.50;99.90;;;;;;4977850;28;20359;-71
2022/09/07 12:00:15;;;;;;;9.80;3.80;;;17.50;99.90;;;;;;4977219;28;20025;-71
2022/09/07 12:02:43;;;;;;;12.38;5.45;;;17.50;99.90;;;;;;4977815;28;20038;-71
2022/09/07 12:05:41;;;;;;;17.10;5.25;;;17.50;99.90;;;;;;4977878;28;20033;-71
2022/09/07 12:08:22;;;;;;;15.48;6.07;;;17.60;99.90;;;;;;4977768;28;20019;-72
2022/09/07 12:10:56;;;;;;;9.25;5.13;;;17.60;99.90;;;;;;4977666;28;20387;-71
2022/09/07 12:13:40;;;;;;;15.65;6.00;;;17.70;99.90;;;;;;4977263;28;20033;-71
2022/09/07 12:16:36;;;;;;;10.88;5.35;;;17.70;99.90;;;;;;4977556;28;20105;-71
2022/09/07 12:19:19;;;;;;;7.57;4.90;;;17.70;99.90;;;;;;4971587;28;20042;-72
2022/09/07 12:21:53;;;;;;;11.50;5.40;;;17.70;99.90;;;;;;4978149;28;20437;-71
2022/09/07 12:24:40;;;;;;;7.78;4.90;;;17.70;99.90;;;;;;4976917;28;20038;-71
2022/09/07 12:27:21;;;;;;;15.30;6.05;;;17.70;99.90;;;;;;4977320;28;20022;-71
2022/09/07 12:30:08;;;;;;;20.20;5.65;;;17.70;99.90;;;;;;4977084;28;20030;-71
2022/09/07 12:32:45;;;;;;;17.52;5.60;;;17.60;99.90;;;;;;4937641;28;20046;-70
2022/09/07 12:35:32;;;;;;;12.93;6.00;;;17.60;99.90;;;;;;4977207;28;20023;-71
2022/09/07 12:38:04;;;;;;;13.70;5.90;;;17.60;99.90;;;;;;4976598;28;20096;-71
2022/09/07 12:40:31;;;;;;;9.13;5.22;;;17.60;99.90;;;;;;4976788;28;20023;-71
2022/09/07 12:43:12;;;;;;;13.73;5.10;;;17.60;99.90;;;;;;4976986;28;20427;-71
2022/09/07 12:45:38;;;;;;;12.40;4.60;;;17.60;99.90;;;;;;4976879;28;20077;-72
2022/09/07 12:48:15;;;;;;;14.75;4.70;;;17.60;99.90;;;;;;4975406;28;20027;-71
2022/09/07 12:51:19;;;;;;;8.63;4.82;;;17.60;99.90;;;;;;4976182;28;20161;-71
2022/09/07 12:54:24;;;;;;;18.70;5.38;;;17.70;99.90;;;;;;4954087;28;20035;-71
2022/09/07 12:57:03;;;;;;;;;;;17.80;99.90;;;;;;4944326;28;20043;-71
2022/09/07 12:59:55;;;;;;;7.55;5.28;;;17.70;99.90;;;;;;4976163;28;19906;-71
2022/09/07 13:02:40;;;;;;;10.15;5.70;;;17.80;99.90;;;;;;4947012;28;20479;-71
2022/09/07 13:05:32;;;;;;;13.55;5.78;;;17.70;99.90;;;;;;4974606;28;20035;-71
2022/09/07 13:08:19;;;;;;;12.30;5.70;;;17.80;99.90;;;;;;4976586;28;20026;-71
2022/09/07 13:10:46;;;;;;;19.60;6.05;;;17.80;99.90;;;;;;4974875;28;20031;-71
2022/09/07 13:13:14;;;;;;;9.38;5.35;;;17.90;99.90;;;;;;4976288;28;20057;-71
2022/09/07 13:15:49;;;;;;;13.77;6.00;;;18.00;99.90;;;;;;4976223;28;20443;-71